Time;durP1;ratioP1;P1;durP2;ratioP2;P2;SDS_P1;SDS_P2;PMS_P1;PMS_P2;Temp;Humidity;BMP_temperature;BMP_pressure;BME280_temperature;BME280_humidity;BME280_pressure;Samples;Min_cycle;Max_cycle;Signal;HPM_P1;HPM_P2
2021/12/06 00:00:36;;;;;;;;;;;;;;;5.81;85.72;100621.56;5096194;28;19920;-66
2021/12/06 00:03:05;;;;;;;;;;;;;;;5.88;85.50;100622.06;5094982;28;20314;-66
2021/12/06 00:05:32;;;;;;;;;;;;;;;5.84;85.65;100628.41;5096288;28;19949;-66
2021/12/06 00:08:00;;;;;;;;;;;;;;;5.83;85.46;100627.59;5096373;28;19920;-66
2021/12/06 00:10:27;;;;;;;;;;;;;;;5.84;85.53;100622.94;5094290;28;19920;-66
2021/12/06 00:12:54;;;;;;;;;;;;;;;5.88;85.49;100627.53;5096219;28;19943;-66
2021/12/06 00:15:21;;;;;;;;;;;;;;;5.90;85.49;100633.53;5095737;28;19920;-66
2021/12/06 00:17:48;;;;;;;;;;;;;;;5.94;84.71;100644.72;5096129;28;20292;-67
2021/12/06 00:20:15;;;;;;;;;;;;;;;5.89;85.76;100631.09;5078168;28;19920;-66
2021/12/06 00:22:42;;;;;;;;;;;;;;;6.03;85.36;100638.38;5094773;28;19920;-67
2021/12/06 00:25:09;;;;;;;;;;;;;;;6.06;84.98;100639.72;5094477;28;20298;-66
2021/12/06 00:27:38;;;;;;;;;;;;;;;6.08;85.05;100637.50;5094002;28;20259;-66
2021/12/06 00:30:11;;;;;;;;;;;;;;;6.17;84.33;100635.81;5078284;28;19920;-66
2021/12/06 00:32:39;;;;;;;;;;;;;;;5.91;85.67;100629.69;5095796;28;19920;-66
2021/12/06 00:35:07;;;;;;;;;;;;;;;5.91;85.47;100646.09;5095789;28;19930;-66
2021/12/06 00:37:42;;;;;;;;;;;;;;;5.91;85.61;100639.84;5094645;28;19943;-66
2021/12/06 00:40:11;;;;;;;;;;;;;;;5.93;86.13;100649.38;5079631;28;19920;-66
2021/12/06 00:42:38;;;;;;;;;;;;;;;5.82;86.66;100647.81;5074325;28;20284;-65
2021/12/06 00:45:06;;;;;;;;;;;;;;;5.89;87.07;100655.72;5073801;28;20374;-66
2021/12/06 00:47:33;;;;;;;;;;;;;;;6.11;85.58;100665.09;5074229;28;19920;-66
2021/12/06 00:50:00;;;;;;;;;;;;;;;5.90;86.41;100671.81;5074403;28;19924;-66
2021/12/06 00:52:28;;;;;;;;;;;;;;;6.09;86.29;100666.47;5074224;28;19927;-66
2021/12/06 00:54:55;;;;;;;;;;;;;;;5.86;86.47;100672.69;5075021;28;19920;-66
2021/12/06 00:57:22;;;;;;;;;;;;;;;5.85;86.52;100669.13;5075557;28;19953;-66
2021/12/06 00:59:50;;;;;;;;;;;;;;;5.80;87.89;100674.59;5074404;28;19928;-66
2021/12/06 01:02:17;;;;;;;;;;;;;;;5.83;87.38;100679.50;5075123;28;19920;-66
2021/12/06 01:04:45;;;;;;;;;;;;;;;6.05;86.46;100677.16;5074005;28;19920;-66
2021/12/06 01:07:12;;;;;;;;;;;;;;;6.04;85.93;100680.19;5075431;28;20440;-67
2021/12/06 01:09:39;;;;;;;;;;;;;;;6.08;86.31;100689.47;5073905;28;19999;-66
2021/12/06 01:12:07;;;;;;;;;;;;;;;5.91;86.96;100691.78;5074098;28;20264;-66
2021/12/06 01:14:34;;;;;;;;;;;;;;;5.90;86.87;100687.38;5073857;28;19927;-67
2021/12/06 01:17:02;;;;;;;;;;;;;;;5.81;87.19;100694.50;5073642;28;19932;-66
2021/12/06 01:19:30;;;;;;;;;;;;;;;5.96;87.23;100697.22;5074111;28;20422;-65
2021/12/06 01:24:55;;;;;;;;;;;;;;;6.14;86.58;100708.28;5077379;28;19920;-66
2021/12/06 01:40:20;;;;;;;;;;;;;;;6.14;87.88;100713.75;5074718;28;19920;-67
2021/12/06 01:42:47;;;;;;;;;;;;;;;5.80;90.72;100725.69;5098940;28;19927;-67
2021/12/06 01:45:14;;;;;;;;;;;;;;;5.66;91.16;100725.50;5097698;28;19927;-66
2021/12/06 01:47:41;;;;;;;;;;;;;;;5.86;91.41;100727.34;5098911;28;19920;-68
2021/12/06 01:50:18;;;;;;;;;;;;;;;5.91;91.72;100725.38;5097822;28;19920;-66
2021/12/06 01:52:47;;;;;;;;;;;;;;;5.64;91.75;100738.63;5080994;28;19943;-66
2021/12/06 01:55:22;;;;;;;;;;;;;;;5.72;92.15;100738.03;5098554;28;19924;-66
2021/12/06 01:57:49;;;;;;;;;;;;;;;5.65;92.32;100746.53;5080747;28;20421;-66
2021/12/06 02:00:36;;;;;;;;;;;;;;;5.74;93.02;100741.28;5098735;28;19920;-67
2021/12/06 02:03:08;;;;;;;;;;;;;;;5.75;92.74;100751.94;5097494;28;20291;-66
2021/12/06 02:05:38;;;;;;;;;;;;;;;5.63;93.27;100753.38;5079603;28;19920;-66
2021/12/06 02:08:08;;;;;;;;;;;;;;;5.71;93.25;100758.25;5101669;28;19920;-65
2021/12/06 02:10:35;;;;;;;;;;;;;;;5.87;92.78;100751.66;5097053;28;19920;-67
2021/12/06 02:13:08;;;;;;;;;;;;;;;5.61;92.95;100766.50;5097127;28;19920;-66
2021/12/06 02:15:46;;;;;;;;;;;;;;;5.77;93.16;100767.25;5098116;28;19935;-67
2021/12/06 02:18:28;;;;;;;;;;;;;;;5.92;91.57;100775.41;5097102;28;19920;-66
2021/12/06 02:21:04;;;;;;;;;;;;;;;5.66;91.95;100764.56;5098065;28;19920;-66
2021/12/06 02:23:31;;;;;;;;;;;;;;;5.88;92.21;100771.59;5096751;28;19924;-66
2021/12/06 02:25:59;;;;;;;;;;;;;;;5.93;92.09;100777.06;5096978;28;19920;-66
2021/12/06 02:28:26;;;;;;;;;;;;;;;5.65;93.71;100773.84;5096677;28;19927;-66
2021/12/06 02:30:53;;;;;;;;;;;;;;;5.66;94.06;100771.94;5095691;28;20034;-67
2021/12/06 02:33:22;;;;;;;;;;;;;;;5.83;94.01;100777.09;5097529;28;19920;-67
2021/12/06 02:35:49;;;;;;;;;;;;;;;5.71;93.88;100769.19;5098004;28;20363;-66
2021/12/06 02:38:16;;;;;;;;;;;;;;;5.87;94.16;100781.72;5063363;28;19927;-67
2021/12/06 02:40:43;;;;;;;;;;;;;;;5.82;93.53;100775.44;5078383;28;20375;-67
2021/12/06 02:43:10;;;;;;;;;;;;;;;6.03;93.19;100772.34;5076319;28;20291;-65
2021/12/06 02:45:38;;;;;;;;;;;;;;;5.99;92.39;100770.44;5076269;28;19932;-67
2021/12/06 02:48:06;;;;;;;;;;;;;;;5.69;94.03;100769.47;5076096;28;20291;-66
2021/12/06 02:50:37;;;;;;;;;;;;;;;5.72;94.28;100777.09;5076349;28;19927;-66
2021/12/06 02:53:04;;;;;;;;;;;;;;;5.82;93.40;100787.19;5076195;28;20363;-67
2021/12/06 02:55:37;;;;;;;;;;;;;;;5.69;93.77;100772.22;5059623;28;19947;-66
2021/12/06 02:58:21;;;;;;;;;;;;;;;5.88;93.47;100769.69;5075911;28;19920;-66
2021/12/06 03:00:50;;;;;;;;;;;;;;;5.90;92.53;100769.41;5075852;28;20339;-65
2021/12/06 03:03:18;;;;;;;;;;;;;;;6.23;91.81;100777.69;5075959;28;19920;-66
2021/12/06 03:05:49;;;;;;;;;;;;;;;5.95;91.43;100783.03;5076062;28;19927;-68
2021/12/06 03:08:35;;;;;;;;;;;;;;;6.01;91.85;100787.38;5075672;28;19920;-66
2021/12/06 03:11:04;;;;;;;;;;;;;;;5.85;92.28;100797.59;5059426;28;19931;-67
2021/12/06 03:13:31;;;;;;;;;;;;;;;5.78;92.86;100798.94;5077048;28;19920;-67
2021/12/06 03:15:59;;;;;;;;;;;;;;;5.89;93.10;100806.03;5059047;28;19920;-67
2021/12/06 03:18:26;;;;;;;;;;;;;;;6.04;93.27;100804.06;5075669;28;19927;-66
2021/12/06 03:20:53;;;;;;;;;;;;;;;6.05;91.68;100808.41;5075706;28;20443;-66
2021/12/06 03:23:20;;;;;;;;;;;;;;;6.12;92.58;100814.38;5075356;28;19921;-66
2021/12/06 03:25:48;;;;;;;;;;;;;;;5.62;93.48;100809.94;5075198;28;19920;-66
2021/12/06 03:28:15;;;;;;;;;;;;;;;5.76;94.21;100810.16;5054843;28;20490;-66
2021/12/06 03:30:43;;;;;;;;;;;;;;;5.72;93.92;100818.09;5056939;28;19925;-66
2021/12/06 03:33:10;;;;;;;;;;;;;;;5.86;93.65;100818.34;5039502;28;19928;-66
2021/12/06 03:35:37;;;;;;;;;;;;;;;5.83;94.29;100818.91;5055463;28;19928;-65
2021/12/06 03:38:04;;;;;;;;;;;;;;;5.84;94.18;100814.28;5039281;28;19921;-66
2021/12/06 03:40:31;;;;;;;;;;;;;;;5.93;95.13;100809.84;5090493;28;19927;-66
2021/12/06 03:42:58;;;;;;;;;;;;;;;5.87;95.17;100806.31;5077799;28;19947;-66
2021/12/06 03:45:26;;;;;;;;;;;;;;;5.71;95.74;100821.94;5077520;28;20318;-65
2021/12/06 03:47:53;;;;;;;;;;;;;;;5.79;96.21;100815.06;5097037;28;19931;-67
2021/12/06 03:50:20;;;;;;;;;;;;;;;5.66;96.99;100808.28;5096699;28;19920;-66
2021/12/06 03:52:48;;;;;;;;;;;;;;;5.84;97.47;100822.47;5078571;28;19919;-67
2021/12/06 03:55:16;;;;;;;;;;;;;;;5.76;97.38;100821.09;5095209;28;19920;-67
2021/12/06 03:57:44;;;;;;;;;;;;;;;6.06;96.99;100829.19;5095238;28;19924;-66
2021/12/06 04:00:14;;;;;;;;;;;;;;;5.70;96.46;100820.28;5095357;28;19927;-66
2021/12/06 04:02:47;;;;;;;;;;;;;;;6.00;96.74;100832.25;5079403;28;19927;-67
2021/12/06 04:05:15;;;;;;;;;;;;;;;6.07;95.92;100835.47;5095264;28;19927;-67
2021/12/06 04:07:42;;;;;;;;;;;;;;;6.20;95.48;100846.63;5095148;28;19920;-66
2021/12/06 04:10:10;;;;;;;;;;;;;;;6.17;94.62;100844.44;5078129;28;19927;-66
2021/12/06 04:12:38;;;;;;;;;;;;;;;6.13;94.45;100857.06;5094908;28;20371;-66
2021/12/06 04:15:07;;;;;;;;;;;;;;;5.97;95.30;100860.94;5096179;28;20315;-67
2021/12/06 04:17:35;;;;;;;;;;;;;;;5.93;95.69;100870.00;5078066;28;19920;-67
2021/12/06 04:20:04;;;;;;;;;;;;;;;5.91;95.97;100872.97;5094969;28;19927;-67
2021/12/06 04:22:31;;;;;;;;;;;;;;;5.91;95.90;100883.91;5094777;28;19927;-67
2021/12/06 04:25:01;;;;;;;;;;;;;;;6.13;94.96;100878.09;5077543;28;19931;-66
2021/12/06 04:27:29;;;;;;;;;;;;;;;6.37;93.78;100879.09;5095675;28;19927;-66
2021/12/06 04:29:56;;;;;;;;;;;;;;;6.25;93.58;100882.16;5094731;28;20302;-66
2021/12/06 04:32:24;;;;;;;;;;;;;;;6.31;93.90;100875.56;5094516;28;19951;-67
2021/12/06 04:34:52;;;;;;;;;;;;;;;6.48;93.63;100884.22;5094607;28;19920;-66
2021/12/06 04:37:19;;;;;;;;;;;;;;;6.51;91.58;100874.63;5094232;28;19931;-66
2021/12/06 04:39:47;;;;;;;;;;;;;;;6.51;92.10;100872.72;5082461;28;20331;-66
2021/12/06 04:42:14;;;;;;;;;;;;;;;6.39;91.46;100877.72;5074438;28;19920;-66
2021/12/06 04:44:42;;;;;;;;;;;;;;;6.37;91.24;100882.66;5074092;28;19955;-67
2021/12/06 04:47:09;;;;;;;;;;;;;;;6.69;91.39;100887.66;5074076;28;19920;-66
2021/12/06 04:49:36;;;;;;;;;;;;;;;6.52;91.21;100906.38;5074243;28;19943;-65
2021/12/06 04:52:05;;;;;;;;;;;;;;;6.35;92.02;100912.19;5075600;28;19920;-67
2021/12/06 04:54:36;;;;;;;;;;;;;;;6.30;91.56;100909.47;5075311;28;19921;-68
2021/12/06 04:57:24;;;;;;;;;;;;;;;6.45;91.52;100908.59;5075936;28;19924;-66
2021/12/06 04:59:58;;;;;;;;;;;;;;;6.61;91.05;100910.97;5078421;28;19921;-67
2021/12/06 05:02:27;;;;;;;;;;;;;;;6.42;90.49;100911.88;5078344;28;19928;-67
2021/12/06 05:04:58;;;;;;;;;;;;;;;6.18;92.28;100909.00;5078447;28;19927;-65
2021/12/06 05:07:32;;;;;;;;;;;;;;;6.28;92.66;100914.41;5045676;28;19928;-66
2021/12/06 05:09:59;;;;;;;;;;;;;;;6.29;92.41;100920.72;5062043;28;19928;-67
2021/12/06 05:12:27;;;;;;;;;;;;;;;6.21;91.68;100918.53;5079708;28;20291;-66
2021/12/06 05:14:54;;;;;;;;;;;;;;;6.40;92.44;100919.53;5079766;28;19924;-66
2021/12/06 05:17:21;;;;;;;;;;;;;;;6.53;92.04;100918.94;5060658;28;19935;-67
2021/12/06 05:19:49;;;;;;;;;;;;;;;6.20;90.97;100923.22;5078121;28;19930;-67
2021/12/06 05:22:16;;;;;;;;;;;;;;;6.25;91.26;100920.44;5077967;28;19939;-66
2021/12/06 05:24:43;;;;;;;;;;;;;;;6.49;91.80;100921.44;5078805;28;19928;-66
2021/12/06 05:27:10;;;;;;;;;;;;;;;6.38;90.83;100927.25;5077689;28;20406;-66
2021/12/06 05:29:45;;;;;;;;;;;;;;;6.34;90.19;100921.50;5073605;28;19920;-66
2021/12/06 05:32:12;;;;;;;;;;;;;;;6.17;90.72;100928.41;5073723;28;19928;-67
2021/12/06 05:34:41;;;;;;;;;;;;;;;6.14;91.73;100942.63;5074781;28;19921;-66
2021/12/06 05:37:09;;;;;;;;;;;;;;;6.04;92.01;100948.13;5058708;28;19921;-67
2021/12/06 05:39:36;;;;;;;;;;;;;;;6.07;92.87;100953.88;5077500;28;19927;-67
2021/12/06 05:42:05;;;;;;;;;;;;;;;6.28;92.19;100949.97;5098994;28;20397;-66
2021/12/06 05:44:33;;;;;;;;;;;;;;;6.50;90.21;100958.63;5099089;28;19924;-66
2021/12/06 05:47:00;;;;;;;;;;;;;;;6.37;90.59;100952.94;5097517;28;19951;-66
2021/12/06 05:49:27;;;;;;;;;;;;;;;6.15;91.38;100953.31;5098960;28;19943;-67
2021/12/06 05:51:55;;;;;;;;;;;;;;;6.23;92.02;100952.72;5097739;28;20268;-66
2021/12/06 05:54:25;;;;;;;;;;;;;;;6.25;90.79;100960.66;5097344;28;20304;-67
2021/12/06 05:56:52;;;;;;;;;;;;;;;6.14;92.16;100957.13;5080336;28;19920;-66
2021/12/06 05:59:19;;;;;;;;;;;;;;;6.09;92.10;100959.06;5080704;28;19926;-67
2021/12/06 06:01:49;;;;;;;;;;;;;;;6.33;92.07;100954.63;5098533;28;20366;-66
2021/12/06 06:04:16;;;;;;;;;;;;;;;6.51;90.82;100953.97;5098492;28;19931;-65
2021/12/06 06:06:43;;;;;;;;;;;;;;;6.32;89.78;100955.69;5098277;28;19920;-66
2021/12/06 06:09:10;;;;;;;;;;;;;;;6.23;90.74;100973.78;5096114;28;19920;-66
2021/12/06 06:11:37;;;;;;;;;;;;;;;6.08;90.95;100976.56;5097365;28;19920;-66
2021/12/06 06:14:04;;;;;;;;;;;;;;;6.06;91.52;100968.66;5096255;28;19920;-66
2021/12/06 06:16:36;;;;;;;;;;;;;;;6.14;91.50;100978.19;5089793;28;19924;-66
2021/12/06 06:19:04;;;;;;;;;;;;;;;6.12;91.13;100983.13;5069083;28;20414;-68
2021/12/06 06:21:31;;;;;;;;;;;;;;;6.09;91.25;100981.75;5058064;28;19928;-66
2021/12/06 06:24:06;;;;;;;;;;;;;;;6.23;91.53;100982.81;5070227;28;20359;-65
2021/12/06 06:26:33;;;;;;;;;;;;;;;6.44;90.70;100991.75;5037535;28;20323;-67
2021/12/06 06:29:01;;;;;;;;;;;;;;;6.52;90.31;100988.47;5065123;28;19924;-65
2021/12/06 06:31:28;;;;;;;;;;;;;;;6.91;89.25;100991.25;5109616;28;19920;-63
2021/12/06 06:33:55;;;;;;;;;;;;;;;6.92;88.04;100995.66;5058390;28;20403;-64
2021/12/06 06:36:22;;;;;;;;;;;;;;;6.95;87.03;100989.59;5067399;28;19927;-64
2021/12/06 06:38:49;;;;;;;;;;;;;;;7.04;85.88;100987.91;5065455;28;19920;-65
2021/12/06 06:41:16;;;;;;;;;;;;;;;6.76;86.57;100990.25;5084564;28;19920;-64
2021/12/06 06:43:43;;;;;;;;;;;;;;;6.52;87.50;100993.94;5078008;28;20324;-64
2021/12/06 06:46:10;;;;;;;;;;;;;;;6.58;88.09;100988.16;5077389;28;19928;-63
2021/12/06 06:48:38;;;;;;;;;;;;;;;6.60;87.20;100982.41;5061197;28;19920;-65
2021/12/06 06:51:05;;;;;;;;;;;;;;;6.46;87.96;100984.94;5077714;28;19929;-65
2021/12/06 06:53:32;;;;;;;;;;;;;;;6.86;87.03;100994.88;5057769;28;19924;-63
2021/12/06 06:55:59;;;;;;;;;;;;;;;6.85;86.20;100990.50;5057624;28;20308;-63
2021/12/06 06:58:26;;;;;;;;;;;;;;;6.74;86.75;101000.69;5057412;28;20395;-64
2021/12/06 07:00:53;;;;;;;;;;;;;;;6.99;85.93;101007.91;5064238;28;19928;-66
2021/12/06 07:03:21;;;;;;;;;;;;;;;7.02;85.77;101018.31;5076121;28;19927;-65
2021/12/06 07:05:48;;;;;;;;;;;;;;;6.92;86.57;101018.41;5071319;28;19928;-64
2021/12/06 07:08:15;;;;;;;;;;;;;;;6.76;86.70;101019.56;5065707;28;19931;-64
2021/12/06 07:10:44;;;;;;;;;;;;;;;6.76;87.27;101027.78;5084577;28;19921;-65
2021/12/06 07:13:14;;;;;;;;;;;;;;;6.57;87.86;101035.75;5063611;28;19943;-64
2021/12/06 07:15:41;;;;;;;;;;;;;;;6.62;88.36;101040.41;5059293;28;20279;-65
2021/12/06 07:18:09;;;;;;;;;;;;;;;6.49;88.31;101039.09;5056367;28;19927;-62
2021/12/06 07:20:37;;;;;;;;;;;;;;;6.75;87.93;101042.53;5069074;28;19920;-65
2021/12/06 07:23:04;;;;;;;;;;;;;;;6.89;86.84;101035.34;5073440;28;20011;-63
2021/12/06 07:25:34;;;;;;;;;;;;;;;6.88;86.29;101035.66;5077030;28;20513;-63
2021/12/06 07:28:03;;;;;;;;;;;;;;;6.92;86.39;101039.47;5070059;28;19920;-67
2021/12/06 07:30:30;;;;;;;;;;;;;;;6.65;86.61;101045.31;5075270;28;19924;-68
2021/12/06 07:32:58;;;;;;;;;;;;;;;6.62;86.81;101049.47;5076269;28;19924;-65
2021/12/06 07:35:27;;;;;;;;;;;;;;;6.68;86.67;101064.75;5076336;28;19920;-68
2021/12/06 07:37:54;;;;;;;;;;;;;;;6.58;86.02;101053.84;5073496;28;19921;-63
2021/12/06 07:40:21;;;;;;;;;;;;;;;6.58;86.23;101045.63;5073368;28;19920;-65
2021/12/06 07:42:49;;;;;;;;;;;;;;;6.83;86.01;101045.50;5095200;28;19927;-63
2021/12/06 07:45:16;;;;;;;;;;;;;;;6.94;85.01;101046.28;5066590;28;19947;-63
2021/12/06 07:47:43;;;;;;;;;;;;;;;6.99;84.62;101049.00;5056143;28;19925;-68
2021/12/06 07:50:13;;;;;;;;;;;;;;;7.19;83.83;101048.06;5055584;28;20260;-67
2021/12/06 07:52:46;;;;;;;;;;;;;;;7.33;82.60;101043.59;5053868;28;19921;-67
2021/12/06 07:55:13;;;;;;;;;;;;;;;7.32;82.14;101044.72;5056361;28;20264;-68
2021/12/06 07:57:41;;;;;;;;;;;;;;;7.40;81.86;101052.31;5074585;28;19921;-67
2021/12/06 08:00:09;;;;;;;;;;;;;;;7.51;81.83;101062.97;5076574;28;19924;-64
2021/12/06 08:02:36;;;;;;;;;;;;;;;7.29;81.32;101058.97;5065303;28;19927;-65
2021/12/06 08:07:59;;;;;;;;;;;;;;;7.57;80.57;101047.28;5054683;28;19944;-66
2021/12/06 08:10:26;;;;;;;;;;;;;;;7.46;82.29;101042.97;5059202;28;19920;-63
2021/12/06 08:12:55;;;;;;;;;;;;;;;7.63;82.08;101035.16;5069619;28;19928;-66
2021/12/06 08:15:22;;;;;;;;;;;;;;;7.85;81.17;101038.28;5055468;28;19925;-64
2021/12/06 08:17:50;;;;;;;;;;;;;;;7.99;80.69;101039.25;5054153;28;20386;-67
2021/12/06 08:20:17;;;;;;;;;;;;;;;8.21;80.33;101039.56;5065488;28;19920;-63
2021/12/06 08:22:47;;;;;;;;;;;;;;;8.22;79.80;101041.22;5075922;28;19927;-66
2021/12/06 08:25:14;;;;;;;;;;;;;;;8.02;79.45;101034.00;5075690;28;19920;-67
2021/12/06 08:27:42;;;;;;;;;;;;;;;7.76;80.23;101029.84;5076262;28;19920;-66
2021/12/06 08:30:10;;;;;;;;;;;;;;;7.87;80.58;101017.69;5073616;28;19922;-67
2021/12/06 08:32:37;;;;;;;;;;;;;;;7.98;80.74;101015.69;5066039;28;19928;-66
2021/12/06 08:35:26;;;;;;;;;;;;;;;7.93;80.56;101027.50;5073870;28;19927;-67
2021/12/06 08:37:57;;;;;;;;;;;;;;;7.85;80.57;101038.28;5058123;28;19921;-67
2021/12/06 08:40:24;;;;;;;;;;;;;;;8.04;79.49;101036.44;5058824;28;19921;-67
2021/12/06 08:42:51;;;;;;;;;;;;;;;8.07;79.39;101032.31;5055577;28;19921;-67
2021/12/06 08:45:19;;;;;;;;;;;;;;;8.08;79.21;101026.53;5056931;28;19929;-67
2021/12/06 08:47:46;;;;;;;;;;;;;;;8.14;79.06;101028.13;5062506;28;19921;-66
2021/12/06 08:50:15;;;;;;;;;;;;;;;8.24;78.26;101033.56;5068384;28;20291;-66
2021/12/06 08:52:42;;;;;;;;;;;;;;;8.41;77.65;101042.16;5070220;28;19927;-67
2021/12/06 08:55:13;;;;;;;;;;;;;;;8.57;76.82;101026.31;5072038;28;19944;-66
2021/12/06 08:57:42;;;;;;;;;;;;;;;8.33;75.03;101025.50;5066510;28;19928;-66
2021/12/06 09:00:11;;;;;;;;;;;;;;;8.37;75.13;101029.31;5055325;28;19931;-66
2021/12/06 09:02:39;;;;;;;;;;;;;;;8.49;74.46;101024.22;5065987;28;19924;-67
2021/12/06 09:05:24;;;;;;;;;;;;;;;8.52;74.29;101027.22;5074651;28;20330;-67
2021/12/06 09:07:52;;;;;;;;;;;;;;;8.60;74.04;101028.47;5075021;28;19920;-68
2021/12/06 09:10:19;;;;;;;;;;;;;;;8.54;73.38;101033.19;5075409;28;19920;-66
2021/12/06 09:12:46;;;;;;;;;;;;;;;8.62;72.77;101031.75;5075289;28;20380;-68
2021/12/06 09:15:15;;;;;;;;;;;;;;;8.60;72.69;101037.53;5075109;28;19920;-67
2021/12/06 09:17:47;;;;;;;;;;;;;;;8.62;72.80;101042.72;5073740;28;19920;-67
2021/12/06 09:20:14;;;;;;;;;;;;;;;8.60;72.94;101042.19;5073196;28;19928;-67
2021/12/06 09:22:42;;;;;;;;;;;;;;;8.58;72.42;101034.25;5059321;28;19921;-67
2021/12/06 09:25:09;;;;;;;;;;;;;;;8.27;73.17;101046.69;5054912;28;19924;-67
2021/12/06 09:27:37;;;;;;;;;;;;;;;8.39;73.46;101049.00;5053907;28;19928;-68
2021/12/06 09:30:05;;;;;;;;;;;;;;;8.56;73.13;101035.69;5054847;28;19921;-69
2021/12/06 09:32:32;;;;;;;;;;;;;;;8.28;73.55;101028.31;5054799;28;19925;-67
2021/12/06 09:35:00;;;;;;;;;;;;;;;8.25;74.16;101035.16;5055452;28;19931;-69
2021/12/06 09:37:27;;;;;;;;;;;;;;;8.41;73.41;101042.16;5055890;28;19924;-66
2021/12/06 09:39:56;;;;;;;;;;;;;;;8.41;72.93;101039.41;5076711;28;19920;-67
2021/12/06 09:42:23;;;;;;;;;;;;;;;8.32;73.73;101024.66;5055558;28;20006;-68
2021/12/06 09:44:51;;;;;;;;;;;;;;;8.36;73.88;101024.91;5066112;28;19928;-67
2021/12/06 09:47:18;;;;;;;;;;;;;;;8.53;74.30;101041.72;5061380;28;19921;-67
2021/12/06 09:49:45;;;;;;;;;;;;;;;8.51;73.91;101031.03;5077175;28;19921;-67
2021/12/06 09:52:14;;;;;;;;;;;;;;;8.80;73.04;101020.78;5062017;28;19920;-67
2021/12/06 09:54:41;;;;;;;;;;;;;;;8.88;72.80;101024.81;5071706;28;19924;-67
2021/12/06 09:57:09;;;;;;;;;;;;;;;8.84;73.87;101021.84;5058356;28;19920;-67
2021/12/06 09:59:37;;;;;;;;;;;;;;;9.23;73.59;101021.59;5056876;28;19921;-68
2021/12/06 10:02:06;;;;;;;;;;;;;;;9.08;71.63;101030.84;5040446;28;19920;-66
2021/12/06 10:04:34;;;;;;;;;;;;;;;8.90;72.30;101020.69;5058100;28;19928;-67
2021/12/06 10:07:01;;;;;;;;;;;;;;;8.70;71.95;101025.63;5078196;28;19924;-67
2021/12/06 10:09:29;;;;;;;;;;;;;;;8.78;71.63;101027.72;5096278;28;19934;-68
2021/12/06 10:11:56;;;;;;;;;;;;;;;8.71;72.04;101036.31;5084436;28;19921;-66
2021/12/06 10:14:23;;;;;;;;;;;;;;;8.72;72.31;101029.69;5058153;28;19921;-67
2021/12/06 10:16:51;;;;;;;;;;;;;;;8.71;73.15;101019.84;5056168;28;19921;-67
2021/12/06 10:19:18;;;;;;;;;;;;;;;8.84;72.79;101005.38;5081426;28;19920;-68
2021/12/06 10:21:45;;;;;;;;;;;;;;;8.80;72.30;100998.81;5081121;28;20321;-69
2021/12/06 10:24:14;;;;;;;;;;;;;;;8.68;72.83;100997.63;5077935;28;19920;-67
2021/12/06 10:26:41;;;;;;;;;;;;;;;8.86;72.46;100989.41;5076160;28;20394;-66
2021/12/06 10:29:09;;;;;;;;;;;;;;;9.29;75.45;100986.59;5069596;28;19921;-65
2021/12/06 10:31:41;;;;;;;;;;;;;;;9.47;73.16;100988.50;5077709;28;19920;-68
2021/12/06 10:34:09;;;;;;;;;;;;;;;9.42;73.10;100980.34;5077433;28;20701;-66
2021/12/06 10:36:36;;;;;;;;;;;;;;;9.35;70.83;100966.97;5068459;28;19924;-66
2021/12/06 10:39:04;;;;;;;;;;;;;;;9.20;71.12;100960.91;5071032;28;19927;-67
2021/12/06 10:41:32;;;;;;;;;;;;;;;9.10;71.45;100962.69;5064806;28;19927;-67
2021/12/06 10:44:03;;;;;;;;;;;;;;;9.04;71.53;100954.81;5076211;28;20388;-66
2021/12/06 10:46:31;;;;;;;;;;;;;;;9.24;71.01;100950.97;5076340;28;19928;-67
2021/12/06 10:48:59;;;;;;;;;;;;;;;9.16;71.22;100946.94;5074057;28;19924;-67
2021/12/06 10:51:31;;;;;;;;;;;;;;;9.20;70.92;100941.66;5065273;28;20015;-68
2021/12/06 10:54:03;;;;;;;;;;;;;;;8.99;71.22;100941.16;5065417;28;19981;-68
2021/12/06 10:56:41;;;;;;;;;;;;;;;9.00;70.96;100937.28;5069236;28;19921;-68
2021/12/06 10:59:14;;;;;;;;;;;;;;;9.08;71.16;100922.91;5056044;28;19928;-67
2021/12/06 11:01:41;;;;;;;;;;;;;;;9.16;71.10;100913.13;5060200;28;19928;-68
2021/12/06 11:04:09;;;;;;;;;;;;;;;9.01;71.50;100912.25;5058445;28;19928;-67
2021/12/06 11:06:42;;;;;;;;;;;;;;;8.99;71.84;100914.53;5056607;28;19935;-67
2021/12/06 11:09:13;;;;;;;;;;;;;;;9.16;71.02;100921.38;5061196;28;19928;-64
2021/12/06 11:11:42;;;;;;;;;;;;;;;9.30;70.80;100914.00;5056531;28;19921;-63
2021/12/06 11:14:14;;;;;;;;;;;;;;;9.16;70.36;100916.72;5056937;28;19932;-63
2021/12/06 11:16:42;;;;;;;;;;;;;;;9.05;70.79;100912.47;5038638;28;19927;-66
2021/12/06 11:19:15;;;;;;;;;;;;;;;9.03;70.76;100912.78;5055350;28;19921;-69
2021/12/06 11:21:45;;;;;;;;;;;;;;;9.09;70.80;100906.13;5065788;28;19931;-68
2021/12/06 11:24:51;;;;;;;;;;;;;;;9.20;70.94;100911.44;5056259;28;19932;-67
2021/12/06 11:27:25;;;;;;;;;;;;;;;9.44;70.29;100912.94;5064995;28;20299;-67
2021/12/06 11:30:00;;;;;;;;;;;;;;;9.19;70.84;100923.56;5058889;28;19921;-66
2021/12/06 11:32:31;;;;;;;;;;;;;;;9.39;70.82;100914.97;5057958;28;19924;-65
2021/12/06 11:35:19;;;;;;;;;;;;;;;9.13;71.09;100915.38;5051111;28;19924;-66
2021/12/06 11:37:50;;;;;;;;;;;;;;;9.19;71.20;100902.38;5070515;28;19935;-66
2021/12/06 11:40:19;;;;;;;;;;;;;;;9.18;71.63;100894.44;5065937;28;20377;-66
2021/12/06 11:43:04;;;;;;;;;;;;;;;9.19;71.41;100887.84;5054755;28;19921;-67
2021/12/06 11:45:34;;;;;;;;;;;;;;;8.99;72.13;100886.22;5069991;28;19920;-67
2021/12/06 11:48:03;;;;;;;;;;;;;;;9.27;71.67;100884.38;5066950;28;19921;-66
2021/12/06 11:50:30;;;;;;;;;;;;;;;9.15;72.34;100868.38;5056282;28;19948;-66
2021/12/06 11:53:03;;;;;;;;;;;;;;;9.22;72.11;100865.25;5057158;28;19920;-67
2021/12/06 11:55:30;;;;;;;;;;;;;;;9.05;72.66;100861.09;5056560;28;20312;-66
2021/12/06 11:57:57;;;;;;;;;;;;;;;8.90;72.88;100861.34;5061198;28;19925;-66
2021/12/06 12:00:25;;;;;;;;;;;;;;;9.10;72.50;100863.75;5074157;28;20007;-65
2021/12/06 12:02:53;;;;;;;;;;;;;;;9.11;72.33;100867.34;5072809;28;19920;-65
2021/12/06 12:05:30;;;;;;;;;;;;;;;9.26;72.17;100864.31;5037068;28;19935;-66
2021/12/06 12:08:00;;;;;;;;;;;;;;;9.13;72.11;100863.16;5056012;28;19927;-66
2021/12/06 12:10:37;;;;;;;;;;;;;;;9.34;72.09;100871.06;5066348;28;19927;-66
2021/12/06 12:13:05;;;;;;;;;;;;;;;9.32;72.08;100874.13;5047084;28;20291;-67
2021/12/06 12:15:33;;;;;;;;;;;;;;;9.40;71.50;100864.34;5072164;28;19920;-66
2021/12/06 12:18:00;;;;;;;;;;;;;;;9.31;71.25;100866.19;5060411;28;19931;-67
2021/12/06 12:20:48;;;;;;;;;;;;;;;9.44;71.23;100857.13;5062873;28;19921;-66
2021/12/06 12:23:16;;;;;;;;;;;;;;;9.44;71.32;100857.13;5060155;28;19929;-65
2021/12/06 12:26:03;;;;;;;;;;;;;;;9.28;71.86;100848.34;5067679;28;19920;-67
2021/12/06 12:28:36;;;;;;;;;;;;;;;9.48;71.36;100848.00;5059732;28;19925;-66
2021/12/06 12:31:05;;;;;;;;;;;;;;;9.55;71.13;100840.16;5074211;28;20367;-66
2021/12/06 12:33:33;;;;;;;;;;;;;;;9.52;70.83;100845.47;5074379;28;19925;-66
2021/12/06 12:36:03;;;;;;;;;;;;;;;9.58;70.78;100850.56;5068547;28;19921;-66
2021/12/06 12:38:34;;;;;;;;;;;;;;;9.45;70.59;100845.84;5066121;28;19927;-67
2021/12/06 12:41:05;;;;;;;;;;;;;;;9.38;71.15;100839.91;5060095;28;19925;-67
2021/12/06 12:43:32;;;;;;;;;;;;;;;9.18;71.66;100821.06;5055756;28;19948;-66
2021/12/06 12:46:03;;;;;;;;;;;;;;;9.07;71.80;100814.09;5061262;28;19943;-66
2021/12/06 12:48:42;;;;;;;;;;;;;;;9.52;70.89;100812.47;5061022;28;19920;-66
2021/12/06 12:51:11;;;;;;;;;;;;;;;9.63;70.20;100798.22;5061980;28;19924;-66
2021/12/06 12:53:47;;;;;;;;;;;;;;;9.52;70.31;100790.47;5038619;28;19921;-66
2021/12/06 12:56:25;;;;;;;;;;;;;;;9.51;70.54;100794.31;5073552;28;19920;-67
2021/12/06 12:58:53;;;;;;;;;;;;;;;9.39;70.64;100785.75;5063097;28;19935;-67
2021/12/06 13:01:21;;;;;;;;;;;;;;;9.62;70.32;100779.25;5066462;28;19927;-67
2021/12/06 13:03:48;;;;;;;;;;;;;;;9.58;69.77;100773.56;5072428;28;19928;-66
2021/12/06 13:06:15;;;;;;;;;;;;;;;9.80;69.22;100765.41;5060529;28;19921;-66
2021/12/06 13:08:46;;;;;;;;;;;;;;;9.94;68.67;100763.44;5064269;28;20384;-67
2021/12/06 13:11:13;;;;;;;;;;;;;;;9.86;68.25;100749.59;5042735;28;19921;-67
2021/12/06 13:13:47;;;;;;;;;;;;;;;9.76;68.73;100736.06;5054961;28;19932;-67
2021/12/06 13:16:50;;;;;;;;;;;;;;;9.72;68.77;100732.28;5060248;28;19921;-65